• Join FlightAware (Why Join?)
  • Login
  • US Flag 
09:47PM EDT


 

Airport Tracker/Info


-or-


 

Live Flight TrackerFlight Track Log ✈ DAL1061 ✈ 26-Sep-2013 ✈ KMCO - KLAX

Flight Track Log - Related Links

Times and Time Zones

All times are in EDT time to prevent confusion due to time zone crossing. See the DAL1061 flight status page for this flight to view local times or setup timezone preferences in your user account.

Time Position Orientation Groundspeed Altitude Reporting Facility
EDT Latitude Longitude Course Direction KTS MPH feet Rate Location/Type
07:12PM 28.4500 -81.3167 243° Southwest 167 192 900  Level Orlando TRACON
07:13PM 28.4833 -81.3167 360° North 198 228 2,400 1,740 Climbing Orlando TRACON
07:14PM 28.5500 -81.3167 360° North 260 299 4,100 1,320 Climbing Orlando TRACON
07:15PM 28.5833 -81.3667 307° West 266 306 5,000 1,740 Climbing Orlando TRACON
07:16PM 28.5861 -81.8193 270° West  Level Estimated
07:16PM 28.5500 -81.4500 246° West 267 307 7,700  Level Orlando TRACON
07:17PM 28.6249 -81.9471 243° Southwest  Level Estimated
07:17PM 28.5167 -81.5167 240° Southwest 266 306 9,400  Level Orlando TRACON
07:18PM 28.5000 -81.6000 257° West 292 336 10,000 1,200 Climbing Orlando TRACON
07:19PM 28.4581 -81.7806 255° West 346 398 12,700 1,740 Climbing Jacksonville Center
07:20PM 28.4258 -81.8989 253° West 360 414 14,700 1,740 Climbing Jacksonville Center
07:21PM 28.3911 -82.0125 251° West 381 438 16,200 1,560 Climbing Jacksonville Center
07:22PM 28.3625 -82.1258 254° West 407 468 17,900 1,680 Climbing Jacksonville Center
07:23PM 28.3297 -82.2489 253° West 412 474 19,600 1,620 Climbing Jacksonville Center
07:24PM 28.2928 -82.3764 252° West 418 481 21,200 1,980 Climbing Jacksonville Center
07:25PM 28.2600 -82.5039 254° West 423 487 23,600 2,160 Climbing Jacksonville Center
07:26PM 28.2247 -82.6264 252° West 418 481 25,600 1,860 Climbing Jacksonville Center
07:28PM 28.1658 -82.8375 252° West 399 459 28,800 1,320 Climbing Miami Center
07:29PM 28.1314 -82.9581 252° West 399 459 29,400 540 Climbing Miami Center
07:30PM 28.0944 -83.0878 252° West 407 468 29,900 480 Climbing Miami Center
07:31PM 28.0614 -83.2247 255° West 430 495 30,400 600 Climbing Miami Center
07:32PM 28.0822 -83.3644 280° West 444 511 31,200 900 Climbing Miami Center
07:33PM 28.1069 -83.5069 281° West 446 513 32,300 1,080 Climbing Miami Center
07:34PM 28.1331 -83.6481 282° West 453 521 33,400 840 Climbing Jacksonville Center
07:35PM 28.1594 -83.7919 282° West 448 516 34,000 300 Climbing Jacksonville Center
07:36PM 28.1875 -83.9381 282° West 450 518 34,000  Level Jacksonville Center
07:37PM 28.2114 -84.0703 282° West 450 518 34,000  Level Jacksonville Center
07:38PM 28.2369 -84.2119 282° West 450 518 34,000  Level Jacksonville Center
07:39PM 28.2647 -84.3536 283° West 450 518 34,000  Level Jacksonville Center
07:40PM 28.2842 -84.4811 280° West 450 518 34,000  Level Jacksonville Center
07:41PM 28.3136 -84.6161 284° West 457 526 34,000  Level Jacksonville Center
07:42PM 28.3344 -84.7628 279° West 457 526 34,000  Level Jacksonville Center
07:43PM 28.3617 -84.8975 283° West 452 520 34,000  Level Jacksonville Center
07:44PM 28.3867 -85.0397 281° West 452 520 34,000  Level Jacksonville Center
07:45PM 28.4111 -85.1842 281° West 457 526 34,000  Level Jacksonville Center
07:46PM 28.4378 -85.3217 282° West 457 526 34,000  Level Jacksonville Center
07:47PM 28.4583 -85.4567 280° West 449 517 34,000  Level Jacksonville Center
07:48PM 28.4844 -85.6014 282° West 449 517 34,000  Level Jacksonville Center
07:49PM 28.5086 -85.7367 282° West 451 519 34,000  Level Jacksonville Center
07:50PM 28.5325 -85.8792 281° West 451 519 34,000  Level Jacksonville Center
07:51PM 28.5564 -86.0192 281° West 451 519 34,000  Level Jacksonville Center
07:52PM 28.5800 -86.1619 281° West 451 519 34,000  Level Jacksonville Center
07:53PM 28.6139 -86.2978 286° West 451 519 34,000  Level Jacksonville Center
07:54PM 28.6458 -86.4361 285° West 456 525 34,000  Level Jacksonville Center
07:55PM 28.6794 -86.5719 286° West 456 525 34,000  Level Jacksonville Center
07:56PM 28.7108 -86.7128 284° West 456 525 34,000  Level Jacksonville Center
07:57PM 28.7442 -86.8514 285° West 456 525 34,000  Level Jacksonville Center
07:58PM 28.7794 -86.9903 286° West 456 525 34,000  Level Jacksonville Center
07:59PM 28.8106 -87.1242 285° West 456 525 34,000  Level Jacksonville Center
08:00PM 28.8417 -87.2594 285° West 457 526 34,000  Level Houston Center
08:01PM 28.8739 -87.3983 285° West 455 524 34,000  Level Houston Center
08:02PM 28.9067 -87.5375 285° West 455 524 34,000  Level Houston Center
08:03PM 28.9456 -87.7047 285° West 457 526 34,000  Level Houston Center
08:04PM 28.9767 -87.8431 284° West 453 521 34,000  Level Houston Center
08:05PM 29.0086 -87.9842 285° West 458 527 34,000  Level Houston Center
08:06PM 29.0403 -88.1214 285° West 458 527 34,000  Level Houston Center
08:07PM 29.0719 -88.2619 284° West 457 526 34,000  Level Houston Center
08:08PM 29.1106 -88.4289 285° West 455 524 34,000  Level Houston Center
08:09PM 29.1411 -88.5711 284° West 460 529 34,000  Level Houston Center
08:11PM 29.1728 -88.7119 284° West 459 528 34,000  Level Houston Center
08:12PM 29.2044 -88.8511 285° West 456 525 34,000  Level Houston Center
08:13PM 29.2353 -88.9933 284° West 459 528 34,000  Level Houston Center
08:14PM 29.2664 -89.1339 284° West 457 526 34,000  Level Houston Center
08:15PM 29.3039 -89.3042 284° West 460 529 34,000  Level Houston Center
08:16PM 29.3347 -89.4467 284° West 460 529 34,000  Level Houston Center
08:17PM 29.3644 -89.5883 284° West 459 528 34,000  Level Houston Center
08:18PM 29.3950 -89.7308 284° West 461 531 34,000  Level Houston Center
08:19PM 29.4258 -89.8739 284° West 461 531 34,000  Level Houston Center
08:20PM 29.4564 -90.0167 284° West 460 529 34,000  Level Houston Center
08:21PM 29.4875 -90.1603 284° West 461 531 34,000  Level Houston Center
08:22PM 29.5233 -90.3314 284° West 460 529 34,000  Level Houston Center
08:23PM 29.5533 -90.4750 284° West 461 531 34,000  Level Houston Center
08:24PM 29.5806 -90.6156 283° West 456 525 34,000  Level Houston Center
08:25PM 29.6097 -90.7586 283° West 457 526 34,000  Level Houston Center
08:26PM 29.6403 -90.9028 284° West 463 533 34,000  Level Houston Center
08:27PM 29.6689 -91.0464 283° West 462 532 34,000  Level Houston Center
08:28PM 29.6978 -91.1900 283° West 461 531 34,000  Level Houston Center
08:29PM 29.7322 -91.3614 283° West 461 531 34,000  Level Houston Center
08:30PM 29.7622 -91.5044 284° West 460 529 34,000  Level Houston Center
08:31PM 29.7900 -91.6483 283° West 461 531 34,000  Level Houston Center
08:32PM 29.8214 -91.8058 283° West 463 533 34,000  Level Houston Center
08:33PM 29.8492 -91.9497 283° West 463 533 34,000  Level Houston Center
08:34PM 29.8783 -92.0931 283° West 460 529 34,000  Level Houston Center
08:35PM 29.9053 -92.2386 282° West 465 535 34,000  Level Houston Center
08:36PM 29.9336 -92.3828 283° West 463 533 34,000  Level Houston Center
08:37PM 29.9617 -92.5269 283° West 461 531 34,000  Level Houston Center
08:38PM 29.9889 -92.6706 282° West 459 528 34,000  Level Houston Center
08:39PM 30.0222 -92.8450 282° West 462 532 34,000  Level Houston Center
08:40PM 30.0497 -92.9906 282° West 464 534 34,000  Level Houston Center
08:41PM 30.0769 -93.1358 282° West 463 533 34,000  Level Houston Center
08:42PM 30.1042 -93.2819 282° West 463 533 34,000  Level Houston Center
08:44PM 30.1308 -93.4286 282° West 462 532 34,000  Level Houston Center
08:45PM 30.1578 -93.5778 282° West 466 536 34,000  Level Houston Center
08:46PM 30.1853 -93.7253 282° West 461 531 34,000  Level Houston Center
08:47PM 30.2119 -93.8722 282° West 463 533 34,000  Level Houston Center
08:48PM 30.2386 -94.0181 282° West 462 532 34,000  Level Houston Center
08:49PM 30.2703 -94.1942 282° West 467 537 34,000  Level Houston Center
08:50PM 30.2958 -94.3406 281° West 466 536 34,000  Level Houston Center
08:51PM 30.3214 -94.4869 281° West 465 535 34,000  Level Houston Center
08:52PM 30.3458 -94.6228 282° West 466 536 34,000  Level Houston Center
08:53PM 30.3725 -94.7683 282° West 467 537 34,000  Level Houston Center
08:54PM 30.4011 -94.9408 281° West 460 529 34,000  Level Houston Center
08:55PM 30.4272 -95.0861 282° West 462 532 34,000  Level Houston Center
08:56PM 30.4517 -95.2383 281° West 465 535 34,000  Level Houston Center
08:57PM 30.4758 -95.3864 281° West 465 535 34,000  Level Houston Center
08:58PM 30.5003 -95.5239 282° West 463 533 34,000  Level Houston Center
08:59PM 30.5250 -95.6700 281° West 464 534 34,000  Level Houston Center
09:00PM 30.5531 -95.8483 280° West 469 540 34,000  Level Houston Center
09:01PM 30.5781 -95.9958 281° West 469 540 34,000  Level Houston Center
09:02PM 30.5989 -96.1331 280° West 470 541 34,000  Level Houston Center
09:03PM 30.6278 -96.3100 281° West 474 545 34,000  Level Houston Center
09:04PM 30.6514 -96.4622 280° West 474 545 34,000  Level Houston Center
09:05PM 30.6731 -96.6131 280° West 471 542 34,000  Level Houston Center
09:06PM 30.6981 -96.7636 281° West 470 541 34,000  Level Houston Center
09:07PM 30.7219 -96.9153 280° West 471 542 34,000  Level Houston Center
09:08PM 30.7444 -97.0656 280° West 468 539 34,000  Level Houston Center
09:09PM 30.7675 -97.2203 280° West 472 543 34,000  Level Houston Center
09:10PM 30.7900 -97.3775 279° West 479 551 34,000  Level Houston Center
09:11PM 30.8136 -97.5317 280° West 475 547 34,000  Level Houston Center
09:12PM 30.8372 -97.6831 280° West 471 542 34,000  Level Houston Center
09:13PM 30.8600 -97.8333 280° West 468 539 34,000  Level Houston Center
09:14PM 30.8814 -97.9850 279° West 468 539 34,000  Level Houston Center
09:15PM 30.9039 -98.1356 280° West 467 537 34,000  Level Houston Center
09:16PM 30.9269 -98.2861 280° West 468 539 34,000  Level Houston Center
09:17PM 30.9483 -98.4369 279° West 468 539 34,000  Level Houston Center
09:18PM 30.9694 -98.5878 279° West 468 539 34,000  Level Houston Center
09:19PM 30.9903 -98.7389 279° West 468 539 34,000  Level Houston Center
09:20PM 31.0111 -98.8878 279° West 463 533 34,000  Level Houston Center
09:21PM 31.0322 -99.0372 279° West 463 533 34,000  Level Houston Center
09:22PM 31.0539 -99.1983 279° West 463 533 34,000  Level Houston Center
09:24PM 31.0744 -99.3458 279° West 464 534 34,000  Level Houston Center
09:25PM 31.0928 -99.4881 279° West 428 493 34,000  Level Houston Center
09:26PM 31.1131 -99.6350 279° West 447 514 34,000  Level Houston Center
09:27PM 31.1319 -99.7844 278° West 463 533 34,000  Level Houston Center
09:28PM 31.1514 -99.9314 279° West 458 527 34,000  Level Houston Center
09:29PM 31.1753 -100.1061 279° West 458 527 34,000  Level Houston Center
09:30PM 31.1947 -100.2544 279° West 462 532 34,000  Level Houston Center
09:31PM 31.2125 -100.3989 278° West 455 524 34,000  Level Houston Center
09:32PM 31.2317 -100.5439 279° West 454 522 34,000  Level Houston Center
09:33PM 31.2489 -100.6925 278° West 464 534 34,000  Level Houston Center
09:34PM 31.2689 -100.8369 279° West 452 520 34,000  Level Houston Center
09:35PM 31.2867 -100.9814 278° West 454 522 34,000  Level Houston Center
09:36PM 31.3028 -101.1278 277° West 465 535 34,000  Level Houston Center
09:37PM 31.3253 -101.3022 279° West 452 520 34,000  Level Houston Center
09:38PM 31.3411 -101.4494 277° West 456 525 34,000  Level Houston Center
09:40PM 31.3756 -101.7408 278° West 455 524 34,000  Level Albuquerque Center
09:41PM 31.3936 -101.9025 277° West 454 522 34,000  Level Albuquerque Center
09:42PM 31.4094 -102.0539 277° West 465 535 34,000  Level Albuquerque Center
09:43PM 31.4253 -102.1997 277° West 457 526 34,000  Level Albuquerque Center
09:44PM 31.4414 -102.3486 277° West 457 526 34,000  Level Albuquerque Center
09:45PM 31.4575 -102.4964 277° West 458 527 34,000  Level Albuquerque Center
09:46PM 31.4753 -102.6400 278° West 454 522 34,000  Level Albuquerque Center
09:47PM 31.4892 -102.7850 276° West 452 520 34,000  Level Albuquerque Center
09:48PM 31.5047 -102.9300 277° West 451 519 34,000  Level Albuquerque Center
09:49PM 31.5225 -103.1053 277° West 453 521 34,000  Level Albuquerque Center
09:50PM 31.5372 -103.2511 277° West 451 519 34,000  Level Albuquerque Center
09:51PM 31.5533 -103.3983 277° West 455 524 34,000  Level Albuquerque Center
09:52PM 31.5683 -103.5428 277° West 451 519 34,000  Level Albuquerque Center
09:53PM 31.5817 -103.6872 276° West 449 517 34,000  Level Albuquerque Center
09:54PM 31.5956 -103.8308 277° West 448 516 34,000  Level Albuquerque Center
09:55PM 31.6128 -103.9786 278° West 452 520 34,000  Level Albuquerque Center
09:56PM 31.6303 -104.1542 277° West 455 524 34,000  Level Albuquerque Center
09:57PM 31.6439 -104.2989 276° West 453 521 34,000  Level Albuquerque Center
09:58PM 31.6569 -104.4439 276° West 449 517 34,000  Level Albuquerque Center
09:59PM 31.6700 -104.5856 276° West 447 514 34,000  Level Albuquerque Center
10:00PM 31.6844 -104.7311 277° West 450 518 34,000  Level Albuquerque Center
10:01PM 31.6967 -104.8767 276° West 452 520 34,000  Level Albuquerque Center
10:02PM 31.7097 -105.0206 276° West 449 517 34,000  Level Albuquerque Center
10:03PM 31.7256 -105.1939 276° West 448 516 34,000  Level Albuquerque Center
10:04PM 31.7375 -105.3375 276° West 447 514 34,000  Level Albuquerque Center
10:05PM 31.7503 -105.4828 276° West 449 517 34,000  Level Albuquerque Center
10:07PM 31.7614 -105.6269 275° West 446 513 34,000  Level Albuquerque Center
10:08PM 31.7736 -105.7700 276° West 444 511 34,000  Level Albuquerque Center
10:09PM 31.7853 -105.9142 275° West 445 512 34,000  Level Albuquerque Center
10:10PM 31.7975 -106.0547 276° West 437 503 34,000  Level Albuquerque Center
10:11PM 31.8092 -106.1953 276° West 434 499 34,000  Level Albuquerque Center
10:12PM 31.8292 -106.3667 278° West 443 510 34,000  Level Albuquerque Center
10:13PM 31.8542 -106.5097 282° West 448 516 34,000  Level Albuquerque Center
10:14PM 31.8761 -106.6431 281° West 446 513 34,000  Level Albuquerque Center
10:15PM 31.8992 -106.7844 281° West 440 506 34,000  Level Albuquerque Center
10:16PM 31.9211 -106.9256 280° West 440 506 34,000  Level Albuquerque Center
10:17PM 31.9442 -107.0672 281° West 438 504 34,000  Level Albuquerque Center
10:18PM 31.9708 -107.2389 280° West 441 507 34,000  Level Albuquerque Center
10:19PM 31.9917 -107.3822 280° West 441 507 34,000  Level Albuquerque Center
10:20PM 32.0139 -107.5253 280° West 442 509 34,000  Level Albuquerque Center
10:21PM 32.0361 -107.6672 280° West 441 507 34,000  Level Albuquerque Center
10:22PM 32.0567 -107.8103 280° West 440 506 34,000  Level Albuquerque Center
10:23PM 32.0781 -107.9517 280° West 438 504 34,000  Level Albuquerque Center
10:24PM 32.1003 -108.0933 281° West 438 504 34,000  Level Albuquerque Center
10:25PM 32.1208 -108.2336 280° West 436 502 34,000  Level Albuquerque Center
10:26PM 32.1411 -108.3722 280° West 432 497 34,000  Level Albuquerque Center
10:27PM 32.1625 -108.5192 280° West 428 493 34,000  Level Albuquerque Center
10:28PM 32.1822 -108.6586 280° West 429 494 34,000  Level Albuquerque Center
10:29PM 32.2017 -108.7964 280° West 426 490 34,000  Level Albuquerque Center
10:30PM 32.2214 -108.9344 280° West 426 490 34,000  Level Albuquerque Center
10:31PM 32.2411 -109.0739 280° West 426 490 34,000  Level Albuquerque Center
10:32PM 32.2619 -109.2125 280° West 428 493 34,000  Level Albuquerque Center
10:33PM 32.3058 -109.3758 288° West 435 501 34,000  Level Albuquerque Center
10:34PM 32.3547 -109.5103 293° West 442 509 34,000  Level Albuquerque Center
10:35PM 32.4003 -109.6433 292° West 438 504 34,000  Level Albuquerque Center
10:36PM 32.4469 -109.7786 292° West 439 505 34,000  Level Albuquerque Center
10:37PM 32.4958 -109.9156 293° West 445 512 34,000  Level Albuquerque Center
10:38PM 32.5425 -110.0500 292° West 445 512 34,000  Level Albuquerque Center
10:39PM 32.5889 -110.1856 292° West 444 511 34,000  Level Albuquerque Center
10:40PM 32.6356 -110.3231 292° West 445 512 34,000  Level Albuquerque Center
10:41PM 32.6825 -110.4608 292° West 447 514 34,000  Level Albuquerque Center
10:42PM 32.7297 -110.6006 292° West 451 519 34,000  Level Albuquerque Center
10:43PM 32.7847 -110.7633 292° West 449 517 34,000  Level Albuquerque Center
10:44PM 32.8294 -110.8969 292° West 443 510 34,000  Level Albuquerque Center
10:45PM 32.8747 -111.0308 292° West 439 505 34,000  Level Albuquerque Center
10:46PM 32.9203 -111.1633 292° West 436 502 34,000  Level Albuquerque Center
10:47PM 32.9636 -111.2978 291° West 434 499 34,000  Level Albuquerque Center
10:48PM 33.0072 -111.4317 291° West 434 499 34,000  Level Albuquerque Center
10:49PM 33.0517 -111.5669 291° West 438 504 34,000  Level Albuquerque Center
10:50PM 33.0950 -111.7000 291° West 431 496 34,000  Level Albuquerque Center
10:52PM 33.1378 -111.8311 291° West 425 489 34,000  Level Albuquerque Center
10:53PM 33.1797 -111.9642 291° West 426 490 34,000  Level Albuquerque Center
10:54PM 33.2319 -112.1242 291° West 430 495 34,000  Level Albuquerque Center
10:55PM 33.2742 -112.2542 291° West 424 488 34,000  Level Albuquerque Center
10:56PM 33.3150 -112.3872 290° West 425 489 34,000  Level Albuquerque Center
10:57PM 33.3567 -112.5186 291° West 422 486 34,000  Level Albuquerque Center
10:58PM 33.4003 -112.6547 291° West 424 488 34,000  Level Albuquerque Center
10:59PM 33.4419 -112.7867 291° West 425 489 34,000  Level Albuquerque Center
11:00PM 33.4864 -112.9183 292° West 427 491 34,000  Level Albuquerque Center
11:01PM 33.5342 -113.0489 294° West 429 494 34,000 -60 Level Albuquerque Center
11:02PM 33.5811 -113.1803 293° West 429 494 33,900  Descending Albuquerque Center
11:03PM 33.6247 -113.3086 292° West 426 490 34,000  Climbing Albuquerque Center
11:04PM 33.6761 -113.4500 294° West 406 467 34,000  Level Albuquerque Center
11:05PM 33.7167 -113.5722 292° West 399 459 34,000  Level Albuquerque Center
11:06PM 33.7633 -113.6956 295° West 400 460 34,000  Level Albuquerque Center
11:07PM 33.8042 -113.8156 292° West 394 453 34,000  Level Albuquerque Center
11:08PM 33.8450 -113.9336 293° West 386 444 34,000  Level Albuquerque Center
11:09PM 33.8764 -114.0231 293° West 384 442 34,000  Level Los Angeles Center
11:10PM 33.9181 -114.1414 293° West 384 442 34,000  Level Los Angeles Center
11:11PM 33.9581 -114.2597 292° West 384 442 34,000  Level Los Angeles Center
11:12PM 33.9983 -114.3772 292° West 381 438 34,000  Level Los Angeles Center
11:13PM 34.0400 -114.4964 293° West 385 443 34,000  Level Los Angeles Center
11:14PM 34.0875 -114.6392 292° West 384 442 34,000 -540 Level Los Angeles Center
11:15PM 34.1044 -114.7336 282° West 362 417 33,000 -1,260 Descending Los Angeles Center
11:16PM 34.1047 -114.8783 270° West 356 410 31,400 -1,500 Descending Los Angeles Center
11:17PM 34.1058 -114.9947 271° West 350 403 29,900 -1,320 Descending Los Angeles Center
11:18PM 34.1081 -115.1081 271° West 341 392 28,700 -960 Descending Los Angeles Center
11:19PM 34.1089 -115.2214 271° West 340 391 28,000 -360 Descending Los Angeles Center
11:20PM 34.1097 -115.3569 270° West 338 389 28,000  Level Los Angeles Center
11:21PM 34.1108 -115.4714 271° West 343 395 28,000  Level Los Angeles Center
11:22PM 34.1111 -115.5856 270° West 342 394 28,000  Level Los Angeles Center
11:23PM 34.1111 -115.6989 270° West 340 391 28,000  Level Los Angeles Center
11:24PM 34.1078 -115.8111 268° West 337 388 28,000  Level Los Angeles Center
11:25PM 34.0906 -115.9200 259° West 333 383 28,000  Level Los Angeles Center
11:26PM 34.0728 -116.0303 259° West 334 384 28,000  Level Los Angeles Center
11:27PM 34.0533 -116.1636 260° West 338 389 28,000  Level Los Angeles Center
11:28PM 34.0369 -116.2772 260° West 344 396 28,000  Level Los Angeles Center
11:29PM 34.0183 -116.3986 260° West 366 421 28,000 -120 Level Los Angeles Center
11:30PM 34.0025 -116.5194 261° West 366 421 27,800 -1,080 Descending Los Angeles Center
11:31PM 33.9931 -116.6383 265° West 359 413 25,900 -1,980 Descending Los Angeles Center
11:32PM 33.9836 -116.7533 264° West 349 402 23,800 -2,220 Descending Los Angeles Center
11:33PM 33.9722 -116.8864 264° West 337 388 21,400 -2,160 Descending Los Angeles Center
11:34PM 33.9667 -117.0000 267° West 313 360 19,300 -2,100 Descending Southern California TRACON
11:35PM 33.9500 -117.1000 259° West 310 357 17,300 -1,260 Descending Southern California TRACON
11:36PM 33.9500 -117.2000 270° West 306 352 17,000 -1,020 Descending Southern California TRACON
11:37PM 33.9333 -117.3000 259° West 299 344 15,200 -1,620 Descending Southern California TRACON
11:38PM 33.9333 -117.3833 270° West 270 311 13,800 -1,080 Descending Southern California TRACON
11:39PM 33.9667 -117.4667 296° West 261 300 13,200 -720 Descending Southern California TRACON
11:40PM 34.0000 -117.5500 296° West 261 300 12,300 -1,200 Descending Southern California TRACON
11:41PM 34.0167 -117.6333 284° West 315 362 10,900 -1,380 Descending Southern California TRACON
11:42PM 34.0000 -117.7333 259° West 272 313 9,600 -1,200 Descending Southern California TRACON
11:43PM 34.0000 -117.8333 270° West 270 311 8,400 -1,320 Descending Southern California TRACON
11:44PM 33.9833 -117.9167 256° West 241 277 7,000 -1,080 Descending Southern California TRACON
11:45PM 33.9833 -117.9833 270° West 192 221 6,300 -840 Descending Southern California TRACON
11:46PM 33.9667 -118.0333 248° West 175 201 5,400 -840 Descending Southern California TRACON
11:47PM 33.9667 -118.1000 270° West 177 204 4,700 -840 Descending Southern California TRACON
11:48PM 33.9667 -118.1500 270° West 170 196 3,900 -900 Descending Southern California TRACON
11:49PM 33.9500 -118.2167 253° West 169 194 2,900 -960 Descending Southern California TRACON
11:50PM 33.9500 -118.2667 270° West 175 201 2,000 -900 Descending Southern California TRACON
11:51PM 33.9500 -118.3167 270° West 142 163 1,200 -840 Descending Southern California TRACON
11:52PM 33.9333 -118.3667 248° West 127 146 400 -840 Descending Southern California TRACON